sensor_id;sensor_type;location;lat;lon;timestamp;P1;durP1;ratioP1;P2;durP2;ratioP2
26598;SDS011;14240;51.064;16.612;2022-07-15T00:00:09;12.27;;;5.43;;
26598;SDS011;14240;51.064;16.612;2022-07-15T00:02:35;9.38;;;4.40;;
26598;SDS011;14240;51.064;16.612;2022-07-15T00:05:02;7.77;;;4.37;;
26598;SDS011;14240;51.064;16.612;2022-07-15T00:07:30;9.57;;;3.95;;
26598;SDS011;14240;51.064;16.612;2022-07-15T00:09:56;7.43;;;3.50;;
26598;SDS011;14240;51.064;16.612;2022-07-15T00:12:50;9.13;;;3.88;;
26598;SDS011;14240;51.064;16.612;2022-07-15T00:15:17;6.27;;;3.63;;
26598;SDS011;14240;51.064;16.612;2022-07-15T00:17:46;11.68;;;4.32;;
26598;SDS011;14240;51.064;16.612;2022-07-15T00:20:12;12.15;;;4.70;;
26598;SDS011;14240;51.064;16.612;2022-07-15T00:22:39;15.30;;;4.60;;
26598;SDS011;14240;51.064;16.612;2022-07-15T00:25:06;10.40;;;4.63;;
26598;SDS011;14240;51.064;16.612;2022-07-15T00:27:32;15.05;;;4.80;;
26598;SDS011;14240;51.064;16.612;2022-07-15T00:29:58;17.08;;;5.28;;
26598;SDS011;14240;51.064;16.612;2022-07-15T00:32:24;10.90;;;5.05;;
26598;SDS011;14240;51.064;16.612;2022-07-15T00:34:50;12.20;;;4.88;;
26598;SDS011;14240;51.064;16.612;2022-07-15T00:37:18;13.32;;;5.15;;
26598;SDS011;14240;51.064;16.612;2022-07-15T00:39:44;14.65;;;5.75;;
26598;SDS011;14240;51.064;16.612;2022-07-15T00:42:13;16.35;;;4.72;;
26598;SDS011;14240;51.064;16.612;2022-07-15T00:44:58;16.17;;;4.68;;
26598;SDS011;14240;51.064;16.612;2022-07-15T00:47:25;8.27;;;4.30;;
26598;SDS011;14240;51.064;16.612;2022-07-15T00:49:50;17.98;;;5.05;;
26598;SDS011;14240;51.064;16.612;2022-07-15T00:52:17;15.18;;;4.68;;
26598;SDS011;14240;51.064;16.612;2022-07-15T00:54:44;8.98;;;3.97;;
26598;SDS011;14240;51.064;16.612;2022-07-15T00:57:14;9.63;;;3.88;;
26598;SDS011;14240;51.064;16.612;2022-07-15T00:59:41;11.85;;;3.67;;
26598;SDS011;14240;51.064;16.612;2022-07-15T01:02:08;14.43;;;3.63;;
26598;SDS011;14240;51.064;16.612;2022-07-15T01:04:35;12.30;;;3.77;;
26598;SDS011;14240;51.064;16.612;2022-07-15T01:07:04;9.73;;;3.13;;
26598;SDS011;14240;51.064;16.612;2022-07-15T01:09:29;10.00;;;3.00;;
26598;SDS011;14240;51.064;16.612;2022-07-15T01:11:55;13.18;;;3.40;;
26598;SDS011;14240;51.064;16.612;2022-07-15T01:14:21;6.68;;;3.00;;
26598;SDS011;14240;51.064;16.612;2022-07-15T01:16:47;8.63;;;3.30;;
26598;SDS011;14240;51.064;16.612;2022-07-15T01:19:12;6.47;;;2.70;;
26598;SDS011;14240;51.064;16.612;2022-07-15T01:21:38;10.35;;;2.67;;
26598;SDS011;14240;51.064;16.612;2022-07-15T01:24:04;5.20;;;2.58;;
26598;SDS011;14240;51.064;16.612;2022-07-15T01:26:29;8.75;;;2.47;;
26598;SDS011;14240;51.064;16.612;2022-07-15T01:28:55;7.97;;;2.75;;
26598;SDS011;14240;51.064;16.612;2022-07-15T01:31:20;16.25;;;2.88;;
26598;SDS011;14240;51.064;16.612;2022-07-15T01:33:46;6.60;;;2.33;;
26598;SDS011;14240;51.064;16.612;2022-07-15T01:36:12;8.98;;;2.80;;
26598;SDS011;14240;51.064;16.612;2022-07-15T01:38:37;6.22;;;2.72;;
26598;SDS011;14240;51.064;16.612;2022-07-15T01:41:03;12.77;;;2.75;;
26598;SDS011;14240;51.064;16.612;2022-07-15T01:43:29;4.80;;;2.58;;
26598;SDS011;14240;51.064;16.612;2022-07-15T01:45:54;7.50;;;2.45;;
26598;SDS011;14240;51.064;16.612;2022-07-15T01:48:20;10.15;;;2.38;;
26598;SDS011;14240;51.064;16.612;2022-07-15T01:51:05;11.48;;;2.38;;
26598;SDS011;14240;51.064;16.612;2022-07-15T01:53:31;7.63;;;2.50;;
26598;SDS011;14240;51.064;16.612;2022-07-15T01:55:57;6.47;;;2.30;;
26598;SDS011;14240;51.064;16.612;2022-07-15T01:58:22;9.07;;;2.45;;
26598;SDS011;14240;51.064;16.612;2022-07-15T02:00:48;13.00;;;2.28;;
26598;SDS011;14240;51.064;16.612;2022-07-15T02:03:14;11.05;;;2.65;;
26598;SDS011;14240;51.064;16.612;2022-07-15T02:05:40;8.77;;;2.08;;
26598;SDS011;14240;51.064;16.612;2022-07-15T02:08:06;9.40;;;2.50;;
26598;SDS011;14240;51.064;16.612;2022-07-15T02:10:32;11.00;;;2.58;;
26598;SDS011;14240;51.064;16.612;2022-07-15T02:13:07;8.68;;;1.80;;
26598;SDS011;14240;51.064;16.612;2022-07-15T02:15:33;6.07;;;2.13;;
26598;SDS011;14240;51.064;16.612;2022-07-15T02:17:59;8.05;;;1.75;;
26598;SDS011;14240;51.064;16.612;2022-07-15T02:20:25;8.32;;;2.30;;
26598;SDS011;14240;51.064;16.612;2022-07-15T02:22:51;6.68;;;2.35;;
26598;SDS011;14240;51.064;16.612;2022-07-15T02:25:17;10.23;;;2.17;;
26598;SDS011;14240;51.064;16.612;2022-07-15T02:27:42;4.55;;;1.95;;
26598;SDS011;14240;51.064;16.612;2022-07-15T02:30:08;5.40;;;2.25;;
26598;SDS011;14240;51.064;16.612;2022-07-15T02:32:34;10.00;;;1.80;;
26598;SDS011;14240;51.064;16.612;2022-07-15T02:35:00;5.72;;;2.20;;
26598;SDS011;14240;51.064;16.612;2022-07-15T02:37:25;6.35;;;2.22;;
26598;SDS011;14240;51.064;16.612;2022-07-15T02:39:51;2.67;;;1.80;;
26598;SDS011;14240;51.064;16.612;2022-07-15T02:42:17;6.80;;;2.17;;
26598;SDS011;14240;51.064;16.612;2022-07-15T02:44:43;7.28;;;2.05;;
26598;SDS011;14240;51.064;16.612;2022-07-15T02:47:08;7.57;;;1.90;;
26598;SDS011;14240;51.064;16.612;2022-07-15T02:49:34;5.80;;;1.88;;
26598;SDS011;14240;51.064;16.612;2022-07-15T02:51:59;8.23;;;1.90;;
26598;SDS011;14240;51.064;16.612;2022-07-15T02:54:25;10.85;;;2.25;;
26598;SDS011;14240;51.064;16.612;2022-07-15T02:56:50;10.63;;;2.15;;
26598;SDS011;14240;51.064;16.612;2022-07-15T02:59:16;6.93;;;2.45;;
26598;SDS011;14240;51.064;16.612;2022-07-15T03:01:42;8.38;;;2.45;;
26598;SDS011;14240;51.064;16.612;2022-07-15T03:04:07;3.92;;;1.80;;
26598;SDS011;14240;51.064;16.612;2022-07-15T03:06:33;5.90;;;1.98;;
26598;SDS011;14240;51.064;16.612;2022-07-15T03:08:59;9.82;;;2.58;;
26598;SDS011;14240;51.064;16.612;2022-07-15T03:11:24;12.63;;;2.50;;
26598;SDS011;14240;51.064;16.612;2022-07-15T03:13:50;8.68;;;2.25;;
26598;SDS011;14240;51.064;16.612;2022-07-15T03:16:16;6.28;;;1.83;;
26598;SDS011;14240;51.064;16.612;2022-07-15T03:18:42;9.18;;;2.15;;
26598;SDS011;14240;51.064;16.612;2022-07-15T03:21:08;9.73;;;2.47;;
26598;SDS011;14240;51.064;16.612;2022-07-15T03:23:34;4.75;;;2.28;;
26598;SDS011;14240;51.064;16.612;2022-07-15T03:26:00;7.68;;;2.22;;
26598;SDS011;14240;51.064;16.612;2022-07-15T03:28:26;5.10;;;1.90;;
26598;SDS011;14240;51.064;16.612;2022-07-15T03:30:51;5.30;;;1.65;;
26598;SDS011;14240;51.064;16.612;2022-07-15T03:33:17;4.90;;;1.52;;
26598;SDS011;14240;51.064;16.612;2022-07-15T03:35:43;5.45;;;1.90;;
26598;SDS011;14240;51.064;16.612;2022-07-15T03:38:09;4.88;;;1.90;;
26598;SDS011;14240;51.064;16.612;2022-07-15T03:40:34;2.95;;;1.77;;
26598;SDS011;14240;51.064;16.612;2022-07-15T03:43:00;4.22;;;1.90;;
26598;SDS011;14240;51.064;16.612;2022-07-15T03:45:25;7.40;;;2.28;;
26598;SDS011;14240;51.064;16.612;2022-07-15T03:47:51;6.57;;;2.08;;
26598;SDS011;14240;51.064;16.612;2022-07-15T03:50:17;5.45;;;1.55;;
26598;SDS011;14240;51.064;16.612;2022-07-15T03:52:42;5.50;;;1.73;;
26598;SDS011;14240;51.064;16.612;2022-07-15T03:55:08;4.15;;;1.70;;
26598;SDS011;14240;51.064;16.612;2022-07-15T03:57:35;6.25;;;2.25;;
26598;SDS011;14240;51.064;16.612;2022-07-15T04:00:00;3.90;;;1.83;;
26598;SDS011;14240;51.064;16.612;2022-07-15T04:02:26;4.95;;;2.00;;
26598;SDS011;14240;51.064;16.612;2022-07-15T04:04:52;4.95;;;1.75;;
26598;SDS011;14240;51.064;16.612;2022-07-15T04:07:17;6.55;;;1.67;;
26598;SDS011;14240;51.064;16.612;2022-07-15T04:09:43;7.28;;;2.10;;
26598;SDS011;14240;51.064;16.612;2022-07-15T04:12:09;6.03;;;1.80;;
26598;SDS011;14240;51.064;16.612;2022-07-15T04:14:35;5.22;;;1.70;;
26598;SDS011;14240;51.064;16.612;2022-07-15T04:17:01;3.55;;;1.70;;
26598;SDS011;14240;51.064;16.612;2022-07-15T04:19:27;8.73;;;1.60;;
26598;SDS011;14240;51.064;16.612;2022-07-15T04:21:53;5.38;;;1.48;;
26598;SDS011;14240;51.064;16.612;2022-07-15T04:24:19;5.78;;;1.88;;
26598;SDS011;14240;51.064;16.612;2022-07-15T04:26:44;7.05;;;1.67;;
26598;SDS011;14240;51.064;16.612;2022-07-15T04:29:10;5.88;;;2.45;;
26598;SDS011;14240;51.064;16.612;2022-07-15T04:31:36;5.47;;;1.85;;
26598;SDS011;14240;51.064;16.612;2022-07-15T04:34:01;9.15;;;1.65;;
26598;SDS011;14240;51.064;16.612;2022-07-15T04:36:27;5.75;;;1.60;;
26598;SDS011;14240;51.064;16.612;2022-07-15T04:38:52;7.82;;;3.33;;
26598;SDS011;14240;51.064;16.612;2022-07-15T04:41:18;2.72;;;2.03;;
26598;SDS011;14240;51.064;16.612;2022-07-15T04:43:44;3.78;;;1.73;;
26598;SDS011;14240;51.064;16.612;2022-07-15T04:46:10;2.92;;;1.42;;
26598;SDS011;14240;51.064;16.612;2022-07-15T04:48:35;3.15;;;1.80;;
26598;SDS011;14240;51.064;16.612;2022-07-15T04:51:19;11.55;;;2.67;;
26598;SDS011;14240;51.064;16.612;2022-07-15T04:53:45;8.55;;;1.60;;
26598;SDS011;14240;51.064;16.612;2022-07-15T04:56:11;11.40;;;2.00;;
26598;SDS011;14240;51.064;16.612;2022-07-15T04:58:37;4.35;;;1.83;;
26598;SDS011;14240;51.064;16.612;2022-07-15T05:01:03;2.47;;;1.52;;
26598;SDS011;14240;51.064;16.612;2022-07-15T05:03:29;3.45;;;1.30;;
26598;SDS011;14240;51.064;16.612;2022-07-15T05:05:54;3.70;;;1.38;;
26598;SDS011;14240;51.064;16.612;2022-07-15T05:08:20;9.13;;;1.88;;
26598;SDS011;14240;51.064;16.612;2022-07-15T05:10:46;4.47;;;1.77;;
26598;SDS011;14240;51.064;16.612;2022-07-15T05:13:12;7.18;;;2.05;;
26598;SDS011;14240;51.064;16.612;2022-07-15T05:15:37;2.55;;;1.38;;
26598;SDS011;14240;51.064;16.612;2022-07-15T05:18:03;4.25;;;1.58;;
26598;SDS011;14240;51.064;16.612;2022-07-15T05:20:29;2.53;;;1.50;;
26598;SDS011;14240;51.064;16.612;2022-07-15T05:22:54;7.72;;;1.80;;
26598;SDS011;14240;51.064;16.612;2022-07-15T05:25:20;15.68;;;2.03;;
26598;SDS011;14240;51.064;16.612;2022-07-15T05:27:46;5.82;;;1.50;;
26598;SDS011;14240;51.064;16.612;2022-07-15T05:30:13;3.83;;;1.42;;
26598;SDS011;14240;51.064;16.612;2022-07-15T05:32:41;8.45;;;1.75;;
26598;SDS011;14240;51.064;16.612;2022-07-15T05:35:06;7.35;;;1.60;;
26598;SDS011;14240;51.064;16.612;2022-07-15T05:37:32;3.92;;;1.50;;
26598;SDS011;14240;51.064;16.612;2022-07-15T05:40:01;9.82;;;3.58;;
26598;SDS011;14240;51.064;16.612;2022-07-15T05:42:27;10.88;;;2.97;;
26598;SDS011;14240;51.064;16.612;2022-07-15T05:44:53;11.20;;;2.53;;
26598;SDS011;14240;51.064;16.612;2022-07-15T05:47:19;7.38;;;1.92;;
26598;SDS011;14240;51.064;16.612;2022-07-15T05:49:45;5.32;;;1.55;;
26598;SDS011;14240;51.064;16.612;2022-07-15T05:52:10;5.45;;;1.75;;
26598;SDS011;14240;51.064;16.612;2022-07-15T05:54:36;5.22;;;2.35;;
26598;SDS011;14240;51.064;16.612;2022-07-15T05:57:02;5.93;;;1.75;;
26598;SDS011;14240;51.064;16.612;2022-07-15T05:59:28;3.17;;;1.70;;
26598;SDS011;14240;51.064;16.612;2022-07-15T06:01:54;8.63;;;3.05;;
26598;SDS011;14240;51.064;16.612;2022-07-15T06:04:20;5.28;;;1.45;;
26598;SDS011;14240;51.064;16.612;2022-07-15T06:06:46;6.82;;;2.45;;
26598;SDS011;14240;51.064;16.612;2022-07-15T06:09:12;5.15;;;2.45;;
26598;SDS011;14240;51.064;16.612;2022-07-15T06:11:37;4.07;;;1.80;;
26598;SDS011;14240;51.064;16.612;2022-07-15T06:14:03;2.75;;;1.20;;
26598;SDS011;14240;51.064;16.612;2022-07-15T06:16:30;7.43;;;1.92;;
26598;SDS011;14240;51.064;16.612;2022-07-15T06:18:55;13.48;;;4.82;;
26598;SDS011;14240;51.064;16.612;2022-07-15T06:21:21;6.65;;;2.35;;
26598;SDS011;14240;51.064;16.612;2022-07-15T06:23:47;7.78;;;2.08;;
26598;SDS011;14240;51.064;16.612;2022-07-15T06:26:13;6.60;;;1.90;;
26598;SDS011;14240;51.064;16.612;2022-07-15T06:28:38;5.10;;;2.58;;
26598;SDS011;14240;51.064;16.612;2022-07-15T06:31:05;2.08;;;1.30;;
26598;SDS011;14240;51.064;16.612;2022-07-15T06:33:31;5.43;;;1.80;;
26598;SDS011;14240;51.064;16.612;2022-07-15T06:35:56;3.17;;;1.58;;
26598;SDS011;14240;51.064;16.612;2022-07-15T06:38:22;12.90;;;6.25;;
26598;SDS011;14240;51.064;16.612;2022-07-15T06:40:48;7.15;;;1.95;;
26598;SDS011;14240;51.064;16.612;2022-07-15T06:43:14;8.63;;;1.98;;
26598;SDS011;14240;51.064;16.612;2022-07-15T06:45:39;6.78;;;2.53;;
26598;SDS011;14240;51.064;16.612;2022-07-15T06:48:05;4.07;;;1.58;;
26598;SDS011;14240;51.064;16.612;2022-07-15T06:50:31;3.38;;;1.50;;
26598;SDS011;14240;51.064;16.612;2022-07-15T06:52:57;2.65;;;1.33;;
26598;SDS011;14240;51.064;16.612;2022-07-15T06:55:22;3.13;;;1.50;;
26598;SDS011;14240;51.064;16.612;2022-07-15T06:57:48;3.28;;;1.55;;
26598;SDS011;14240;51.064;16.612;2022-07-15T07:00:14;5.82;;;2.15;;
26598;SDS011;14240;51.064;16.612;2022-07-15T07:02:40;10.18;;;3.53;;
26598;SDS011;14240;51.064;16.612;2022-07-15T07:05:06;8.30;;;1.70;;
26598;SDS011;14240;51.064;16.612;2022-07-15T07:07:33;6.82;;;3.13;;
26598;SDS011;14240;51.064;16.612;2022-07-15T07:09:59;5.82;;;2.13;;
26598;SDS011;14240;51.064;16.612;2022-07-15T07:12:25;7.97;;;1.70;;
26598;SDS011;14240;51.064;16.612;2022-07-15T07:14:50;3.92;;;1.30;;
26598;SDS011;14240;51.064;16.612;2022-07-15T07:17:16;1.65;;;1.30;;
26598;SDS011;14240;51.064;16.612;2022-07-15T07:19:42;4.13;;;1.80;;
26598;SDS011;14240;51.064;16.612;2022-07-15T07:22:07;2.83;;;1.58;;
26598;SDS011;14240;51.064;16.612;2022-07-15T07:24:33;3.15;;;1.60;;
26598;SDS011;14240;51.064;16.612;2022-07-15T07:26:59;4.35;;;1.83;;
26598;SDS011;14240;51.064;16.612;2022-07-15T07:29:24;4.53;;;1.45;;
26598;SDS011;14240;51.064;16.612;2022-07-15T07:31:50;3.60;;;1.48;;
26598;SDS011;14240;51.064;16.612;2022-07-15T07:34:17;3.78;;;1.30;;
26598;SDS011;14240;51.064;16.612;2022-07-15T07:36:44;5.70;;;1.47;;
26598;SDS011;14240;51.064;16.612;2022-07-15T07:39:10;3.78;;;1.63;;
26598;SDS011;14240;51.064;16.612;2022-07-15T07:41:37;2.65;;;1.38;;
26598;SDS011;14240;51.064;16.612;2022-07-15T07:44:02;3.83;;;1.40;;
26598;SDS011;14240;51.064;16.612;2022-07-15T07:46:28;3.22;;;1.33;;
26598;SDS011;14240;51.064;16.612;2022-07-15T07:48:54;5.93;;;1.40;;
26598;SDS011;14240;51.064;16.612;2022-07-15T07:51:19;4.30;;;1.30;;
26598;SDS011;14240;51.064;16.612;2022-07-15T07:53:48;3.38;;;1.40;;
26598;SDS011;14240;51.064;16.612;2022-07-15T07:56:13;2.75;;;1.60;;
26598;SDS011;14240;51.064;16.612;2022-07-15T07:58:39;9.20;;;1.65;;
26598;SDS011;14240;51.064;16.612;2022-07-15T08:01:05;5.15;;;1.33;;
26598;SDS011;14240;51.064;16.612;2022-07-15T08:03:31;4.65;;;1.52;;
26598;SDS011;14240;51.064;16.612;2022-07-15T08:05:56;3.92;;;1.35;;
26598;SDS011;14240;51.064;16.612;2022-07-15T08:08:23;6.80;;;1.20;;
26598;SDS011;14240;51.064;16.612;2022-07-15T08:10:50;2.83;;;1.13;;
26598;SDS011;14240;51.064;16.612;2022-07-15T08:13:18;6.15;;;1.52;;
26598;SDS011;14240;51.064;16.612;2022-07-15T08:18:11;5.38;;;1.30;;
26598;SDS011;14240;51.064;16.612;2022-07-15T08:20:37;4.20;;;1.40;;
26598;SDS011;14240;51.064;16.612;2022-07-15T08:23:03;2.70;;;1.30;;
26598;SDS011;14240;51.064;16.612;2022-07-15T08:25:30;4.10;;;1.33;;
26598;SDS011;14240;51.064;16.612;2022-07-15T08:27:57;1.52;;;1.38;;
26598;SDS011;14240;51.064;16.612;2022-07-15T08:30:24;2.70;;;1.20;;
26598;SDS011;14240;51.064;16.612;2022-07-15T08:32:50;4.72;;;1.50;;
26598;SDS011;14240;51.064;16.612;2022-07-15T08:35:16;3.42;;;1.35;;
26598;SDS011;14240;51.064;16.612;2022-07-15T08:37:42;2.95;;;1.15;;
26598;SDS011;14240;51.064;16.612;2022-07-15T08:40:07;3.97;;;1.10;;
26598;SDS011;14240;51.064;16.612;2022-07-15T08:42:34;1.83;;;1.00;;
26598;SDS011;14240;51.064;16.612;2022-07-15T08:45:02;2.92;;;1.23;;
26598;SDS011;14240;51.064;16.612;2022-07-15T08:47:29;5.15;;;0.90;;
26598;SDS011;14240;51.064;16.612;2022-07-15T08:49:57;2.42;;;0.80;;
26598;SDS011;14240;51.064;16.612;2022-07-15T08:52:24;1.73;;;1.00;;
26598;SDS011;14240;51.064;16.612;2022-07-15T08:54:51;3.88;;;1.45;;
26598;SDS011;14240;51.064;16.612;2022-07-15T08:57:17;5.55;;;1.23;;
26598;SDS011;14240;51.064;16.612;2022-07-15T08:59:43;4.25;;;1.10;;
26598;SDS011;14240;51.064;16.612;2022-07-15T09:02:11;6.35;;;1.15;;
26598;SDS011;14240;51.064;16.612;2022-07-15T09:07:22;3.25;;;1.27;;
26598;SDS011;14240;51.064;16.612;2022-07-15T09:09:47;4.82;;;1.20;;
26598;SDS011;14240;51.064;16.612;2022-07-15T09:14:41;5.30;;;1.10;;
26598;SDS011;14240;51.064;16.612;2022-07-15T09:22:46;3.38;;;1.00;;
26598;SDS011;14240;51.064;16.612;2022-07-15T09:25:12;4.63;;;0.80;;
26598;SDS011;14240;51.064;16.612;2022-07-15T09:27:39;4.15;;;1.00;;
26598;SDS011;14240;51.064;16.612;2022-07-15T09:33:00;3.08;;;1.10;;
26598;SDS011;14240;51.064;16.612;2022-07-15T09:35:45;2.08;;;1.27;;
26598;SDS011;14240;51.064;16.612;2022-07-15T09:38:33;3.22;;;0.82;;
26598;SDS011;14240;51.064;16.612;2022-07-15T09:41:00;5.03;;;1.10;;
26598;SDS011;14240;51.064;16.612;2022-07-15T09:43:27;2.40;;;0.80;;
26598;SDS011;14240;51.064;16.612;2022-07-15T09:45:59;0.82;;;0.77;;
26598;SDS011;14240;51.064;16.612;2022-07-15T09:48:27;4.72;;;1.00;;
26598;SDS011;14240;51.064;16.612;2022-07-15T09:51:02;5.85;;;1.20;;
26598;SDS011;14240;51.064;16.612;2022-07-15T09:53:27;1.05;;;0.85;;
26598;SDS011;14240;51.064;16.612;2022-07-15T09:55:53;3.33;;;0.93;;
26598;SDS011;14240;51.064;16.612;2022-07-15T09:58:20;4.40;;;1.07;;
26598;SDS011;14240;51.064;16.612;2022-07-15T10:00:46;3.72;;;1.23;;
26598;SDS011;14240;51.064;16.612;2022-07-15T10:03:12;2.55;;;1.23;;
26598;SDS011;14240;51.064;16.612;2022-07-15T10:05:38;4.25;;;1.25;;
26598;SDS011;14240;51.064;16.612;2022-07-15T10:08:04;4.22;;;1.02;;
26598;SDS011;14240;51.064;16.612;2022-07-15T10:10:33;4.32;;;1.30;;
26598;SDS011;14240;51.064;16.612;2022-07-15T10:29:54;2.58;;;1.13;;
26598;SDS011;14240;51.064;16.612;2022-07-15T10:32:21;7.13;;;1.37;;
26598;SDS011;14240;51.064;16.612;2022-07-15T10:34:47;5.28;;;1.42;;
26598;SDS011;14240;51.064;16.612;2022-07-15T10:37:13;5.85;;;1.17;;
26598;SDS011;14240;51.064;16.612;2022-07-15T10:42:12;6.03;;;1.30;;
26598;SDS011;14240;51.064;16.612;2022-07-15T10:45:24;3.92;;;1.25;;
26598;SDS011;14240;51.064;16.612;2022-07-15T10:47:24;1.25;;;1.00;;
26598;SDS011;14240;51.064;16.612;2022-07-15T10:49:50;5.85;;;1.02;;
26598;SDS011;14240;51.064;16.612;2022-07-15T10:52:20;6.72;;;1.35;;
26598;SDS011;14240;51.064;16.612;2022-07-15T10:54:47;3.85;;;1.05;;
26598;SDS011;14240;51.064;16.612;2022-07-15T11:03:03;5.05;;;1.25;;
26598;SDS011;14240;51.064;16.612;2022-07-15T11:05:33;6.10;;;1.40;;
26598;SDS011;14240;51.064;16.612;2022-07-15T11:10:56;2.92;;;1.27;;
26598;SDS011;14240;51.064;16.612;2022-07-15T11:13:34;3.67;;;1.00;;
26598;SDS011;14240;51.064;16.612;2022-07-15T11:15:59;4.47;;;1.02;;
26598;SDS011;14240;51.064;16.612;2022-07-15T11:18:26;8.65;;;1.15;;
26598;SDS011;14240;51.064;16.612;2022-07-15T11:20:52;3.40;;;1.00;;
26598;SDS011;14240;51.064;16.612;2022-07-15T11:23:18;3.58;;;1.38;;
26598;SDS011;14240;51.064;16.612;2022-07-15T11:25:46;4.43;;;1.35;;
26598;SDS011;14240;51.064;16.612;2022-07-15T11:28:13;3.77;;;1.10;;
26598;SDS011;14240;51.064;16.612;2022-07-15T11:30:40;3.17;;;1.30;;
26598;SDS011;14240;51.064;16.612;2022-07-15T11:33:09;2.22;;;1.10;;
26598;SDS011;14240;51.064;16.612;2022-07-15T11:35:48;4.00;;;1.25;;
26598;SDS011;14240;51.064;16.612;2022-07-15T11:38:16;2.70;;;0.80;;
26598;SDS011;14240;51.064;16.612;2022-07-15T11:40:50;4.38;;;1.60;;
26598;SDS011;14240;51.064;16.612;2022-07-15T11:43:35;8.70;;;1.48;;
26598;SDS011;14240;51.064;16.612;2022-07-15T11:46:20;3.28;;;1.30;;
26598;SDS011;14240;51.064;16.612;2022-07-15T11:48:48;3.00;;;1.08;;
26598;SDS011;14240;51.064;16.612;2022-07-15T11:51:14;2.97;;;1.03;;
26598;SDS011;14240;51.064;16.612;2022-07-15T11:53:45;2.97;;;1.00;;
26598;SDS011;14240;51.064;16.612;2022-07-15T11:56:13;2.22;;;1.20;;
26598;SDS011;14240;51.064;16.612;2022-07-15T12:01:29;2.55;;;1.20;;
26598;SDS011;14240;51.064;16.612;2022-07-15T12:03:54;2.17;;;1.02;;
26598;SDS011;14240;51.064;16.612;2022-07-15T12:08:49;3.05;;;1.35;;
26598;SDS011;14240;51.064;16.612;2022-07-15T12:11:21;2.15;;;0.77;;
26598;SDS011;14240;51.064;16.612;2022-07-15T12:13:58;4.18;;;2.05;;
26598;SDS011;14240;51.064;16.612;2022-07-15T12:16:44;5.18;;;1.05;;
26598;SDS011;14240;51.064;16.612;2022-07-15T12:19:19;5.38;;;1.52;;
26598;SDS011;14240;51.064;16.612;2022-07-15T12:21:59;3.17;;;1.30;;
26598;SDS011;14240;51.064;16.612;2022-07-15T12:27:12;6.13;;;1.90;;
26598;SDS011;14240;51.064;16.612;2022-07-15T12:29:38;6.10;;;1.50;;
26598;SDS011;14240;51.064;16.612;2022-07-15T12:32:06;3.47;;;1.05;;
26598;SDS011;14240;51.064;16.612;2022-07-15T12:37:15;2.80;;;1.23;;
26598;SDS011;14240;51.064;16.612;2022-07-15T12:42:52;6.45;;;1.65;;
26598;SDS011;14240;51.064;16.612;2022-07-15T12:45:22;2.55;;;1.30;;
26598;SDS011;14240;51.064;16.612;2022-07-15T12:53:15;5.68;;;1.30;;
26598;SDS011;14240;51.064;16.612;2022-07-15T12:55:42;2.63;;;1.07;;
26598;SDS011;14240;51.064;16.612;2022-07-15T12:58:11;3.25;;;1.20;;
26598;SDS011;14240;51.064;16.612;2022-07-15T13:00:48;3.08;;;1.10;;
26598;SDS011;14240;51.064;16.612;2022-07-15T13:03:21;3.25;;;1.27;;
26598;SDS011;14240;51.064;16.612;2022-07-15T13:05:51;6.03;;;1.85;;
26598;SDS011;14240;51.064;16.612;2022-07-15T13:08:19;2.50;;;1.50;;
26598;SDS011;14240;51.064;16.612;2022-07-15T13:10:51;3.42;;;1.42;;
26598;SDS011;14240;51.064;16.612;2022-07-15T13:13:20;3.75;;;1.50;;
26598;SDS011;14240;51.064;16.612;2022-07-15T13:18:13;2.40;;;1.52;;
26598;SDS011;14240;51.064;16.612;2022-07-15T13:20:40;1.67;;;1.00;;
26598;SDS011;14240;51.064;16.612;2022-07-15T13:23:06;7.20;;;1.27;;
26598;SDS011;14240;51.064;16.612;2022-07-15T13:25:32;2.70;;;1.17;;
26598;SDS011;14240;51.064;16.612;2022-07-15T13:28:00;3.08;;;1.25;;
26598;SDS011;14240;51.064;16.612;2022-07-15T13:30:27;2.97;;;1.30;;
26598;SDS011;14240;51.064;16.612;2022-07-15T13:32:53;4.38;;;1.38;;
26598;SDS011;14240;51.064;16.612;2022-07-15T13:35:19;6.80;;;1.70;;
26598;SDS011;14240;51.064;16.612;2022-07-15T13:37:44;1.75;;;1.15;;
26598;SDS011;14240;51.064;16.612;2022-07-15T13:40:11;4.45;;;1.15;;
26598;SDS011;14240;51.064;16.612;2022-07-15T13:42:37;2.53;;;1.07;;
26598;SDS011;14240;51.064;16.612;2022-07-15T13:45:04;6.13;;;1.52;;
26598;SDS011;14240;51.064;16.612;2022-07-15T13:47:30;4.40;;;1.15;;
26598;SDS011;14240;51.064;16.612;2022-07-15T13:49:56;8.10;;;1.75;;
26598;SDS011;14240;51.064;16.612;2022-07-15T13:52:51;2.67;;;1.10;;
26598;SDS011;14240;51.064;16.612;2022-07-15T13:55:19;3.80;;;1.27;;
26598;SDS011;14240;51.064;16.612;2022-07-15T13:57:46;6.13;;;2.00;;
26598;SDS011;14240;51.064;16.612;2022-07-15T14:00:14;3.22;;;1.60;;
26598;SDS011;14240;51.064;16.612;2022-07-15T14:02:42;4.15;;;1.45;;
26598;SDS011;14240;51.064;16.612;2022-07-15T14:05:09;2.75;;;1.20;;
26598;SDS011;14240;51.064;16.612;2022-07-15T14:07:36;3.75;;;1.58;;
26598;SDS011;14240;51.064;16.612;2022-07-15T14:10:03;4.95;;;1.50;;
26598;SDS011;14240;51.064;16.612;2022-07-15T14:12:29;7.32;;;1.42;;
26598;SDS011;14240;51.064;16.612;2022-07-15T14:14:55;3.13;;;1.75;;
26598;SDS011;14240;51.064;16.612;2022-07-15T14:17:21;9.88;;;1.85;;
26598;SDS011;14240;51.064;16.612;2022-07-15T14:19:47;7.57;;;1.90;;
26598;SDS011;14240;51.064;16.612;2022-07-15T14:22:12;2.97;;;1.40;;
26598;SDS011;14240;51.064;16.612;2022-07-15T14:24:38;2.65;;;1.63;;
26598;SDS011;14240;51.064;16.612;2022-07-15T14:27:04;2.90;;;1.17;;
26598;SDS011;14240;51.064;16.612;2022-07-15T14:29:30;24.75;;;2.97;;
26598;SDS011;14240;51.064;16.612;2022-07-15T14:31:55;6.90;;;1.17;;
26598;SDS011;14240;51.064;16.612;2022-07-15T14:34:21;5.93;;;1.58;;
26598;SDS011;14240;51.064;16.612;2022-07-15T14:36:47;3.10;;;1.20;;
26598;SDS011;14240;51.064;16.612;2022-07-15T14:39:13;3.65;;;1.30;;
26598;SDS011;14240;51.064;16.612;2022-07-15T14:41:39;2.58;;;1.00;;
26598;SDS011;14240;51.064;16.612;2022-07-15T14:44:05;5.60;;;1.50;;
26598;SDS011;14240;51.064;16.612;2022-07-15T14:46:31;2.88;;;1.30;;
26598;SDS011;14240;51.064;16.612;2022-07-15T14:48:56;2.33;;;1.10;;
26598;SDS011;14240;51.064;16.612;2022-07-15T14:51:22;6.75;;;1.33;;
26598;SDS011;14240;51.064;16.612;2022-07-15T14:53:48;6.40;;;1.60;;
26598;SDS011;14240;51.064;16.612;2022-07-15T14:56:13;4.10;;;1.30;;
26598;SDS011;14240;51.064;16.612;2022-07-15T14:58:39;3.50;;;1.25;;
26598;SDS011;14240;51.064;16.612;2022-07-15T15:01:05;4.63;;;1.25;;
26598;SDS011;14240;51.064;16.612;2022-07-15T15:03:30;9.10;;;1.92;;
26598;SDS011;14240;51.064;16.612;2022-07-15T15:05:56;3.70;;;1.60;;
26598;SDS011;14240;51.064;16.612;2022-07-15T15:08:22;7.13;;;1.60;;
26598;SDS011;14240;51.064;16.612;2022-07-15T15:10:49;3.13;;;1.10;;
26598;SDS011;14240;51.064;16.612;2022-07-15T15:13:14;4.63;;;1.83;;
26598;SDS011;14240;51.064;16.612;2022-07-15T15:15:41;6.95;;;1.50;;
26598;SDS011;14240;51.064;16.612;2022-07-15T15:18:07;4.18;;;1.60;;
26598;SDS011;14240;51.064;16.612;2022-07-15T15:20:33;6.93;;;1.60;;
26598;SDS011;14240;51.064;16.612;2022-07-15T15:22:59;3.67;;;1.27;;
26598;SDS011;14240;51.064;16.612;2022-07-15T15:25:25;3.95;;;1.65;;
26598;SDS011;14240;51.064;16.612;2022-07-15T15:28:09;3.70;;;1.00;;
26598;SDS011;14240;51.064;16.612;2022-07-15T15:30:34;3.15;;;1.48;;
26598;SDS011;14240;51.064;16.612;2022-07-15T15:33:00;2.35;;;1.45;;
26598;SDS011;14240;51.064;16.612;2022-07-15T15:35:26;4.55;;;1.30;;
26598;SDS011;14240;51.064;16.612;2022-07-15T15:37:52;4.57;;;1.48;;